sensor_id;sensor_type;location;lat;lon;timestamp;temperature;humidity
38592;DHT22;24356;48.460;11.450;2023-05-16T00:01:35;9.50;85.30
38592;DHT22;24356;48.460;11.450;2023-05-16T00:04:02;9.50;85.40
38592;DHT22;24356;48.460;11.450;2023-05-16T00:06:28;9.50;85.40
38592;DHT22;24356;48.460;11.450;2023-05-16T00:08:54;9.50;85.40
38592;DHT22;24356;48.460;11.450;2023-05-16T00:11:20;9.50;85.50
38592;DHT22;24356;48.460;11.450;2023-05-16T00:13:46;9.50;85.30
38592;DHT22;24356;48.460;11.450;2023-05-16T00:16:12;9.50;85.40
38592;DHT22;24356;48.460;11.450;2023-05-16T00:18:39;9.50;85.40
38592;DHT22;24356;48.460;11.450;2023-05-16T00:21:05;9.50;85.30
38592;DHT22;24356;48.460;11.450;2023-05-16T00:23:31;9.50;85.40
38592;DHT22;24356;48.460;11.450;2023-05-16T00:25:57;9.50;85.30
38592;DHT22;24356;48.460;11.450;2023-05-16T00:28:22;9.50;85.20
38592;DHT22;24356;48.460;11.450;2023-05-16T00:30:48;9.50;85.40
38592;DHT22;24356;48.460;11.450;2023-05-16T00:33:14;9.50;85.40
38592;DHT22;24356;48.460;11.450;2023-05-16T00:35:39;9.50;85.70
38592;DHT22;24356;48.460;11.450;2023-05-16T00:38:06;9.50;85.70
38592;DHT22;24356;48.460;11.450;2023-05-16T00:40:32;9.50;85.30
38592;DHT22;24356;48.460;11.450;2023-05-16T00:42:58;9.50;85.40
38592;DHT22;24356;48.460;11.450;2023-05-16T00:45:23;9.50;85.30
38592;DHT22;24356;48.460;11.450;2023-05-16T00:47:50;9.50;85.40
38592;DHT22;24356;48.460;11.450;2023-05-16T00:50:16;9.50;85.50
38592;DHT22;24356;48.460;11.450;2023-05-16T00:52:42;9.50;85.40
38592;DHT22;24356;48.460;11.450;2023-05-16T00:55:08;9.50;85.40
38592;DHT22;24356;48.460;11.450;2023-05-16T00:57:37;9.50;85.70
38592;DHT22;24356;48.460;11.450;2023-05-16T01:00:07;9.50;85.50
38592;DHT22;24356;48.460;11.450;2023-05-16T01:02:37;9.50;85.40
38592;DHT22;24356;48.460;11.450;2023-05-16T01:05:03;9.50;85.50
38592;DHT22;24356;48.460;11.450;2023-05-16T01:07:33;9.50;85.90
38592;DHT22;24356;48.460;11.450;2023-05-16T01:10:00;9.50;85.80
38592;DHT22;24356;48.460;11.450;2023-05-16T01:12:46;9.50;85.50
38592;DHT22;24356;48.460;11.450;2023-05-16T01:15:46;9.50;85.40
38592;DHT22;24356;48.460;11.450;2023-05-16T01:18:43;9.50;85.40
38592;DHT22;24356;48.460;11.450;2023-05-16T01:21:43;9.50;85.50
38592;DHT22;24356;48.460;11.450;2023-05-16T01:26:49;9.40;85.50
38592;DHT22;24356;48.460;11.450;2023-05-16T01:29:17;9.40;85.40
38592;DHT22;24356;48.460;11.450;2023-05-16T01:31:43;9.40;85.70
38592;DHT22;24356;48.460;11.450;2023-05-16T01:34:09;9.40;85.50
38592;DHT22;24356;48.460;11.450;2023-05-16T01:36:56;9.40;85.40
38592;DHT22;24356;48.460;11.450;2023-05-16T01:39:33;9.40;85.80
38592;DHT22;24356;48.460;11.450;2023-05-16T01:42:04;9.40;85.80
38592;DHT22;24356;48.460;11.450;2023-05-16T01:45:11;9.30;85.50
38592;DHT22;24356;48.460;11.450;2023-05-16T01:47:40;9.30;85.50
38592;DHT22;24356;48.460;11.450;2023-05-16T01:50:16;9.30;85.70
38592;DHT22;24356;48.460;11.450;2023-05-16T01:53:02;9.30;85.60
38592;DHT22;24356;48.460;11.450;2023-05-16T01:58:02;9.20;85.80
38592;DHT22;24356;48.460;11.450;2023-05-16T02:00:29;9.20;85.70
38592;DHT22;24356;48.460;11.450;2023-05-16T02:02:55;9.20;85.70
38592;DHT22;24356;48.460;11.450;2023-05-16T02:05:20;9.20;85.70
38592;DHT22;24356;48.460;11.450;2023-05-16T02:07:46;9.10;85.90
38592;DHT22;24356;48.460;11.450;2023-05-16T02:10:12;9.10;85.80
38592;DHT22;24356;48.460;11.450;2023-05-16T02:12:38;9.10;85.80
38592;DHT22;24356;48.460;11.450;2023-05-16T02:15:04;9.10;85.90
38592;DHT22;24356;48.460;11.450;2023-05-16T02:17:30;9.10;85.80
38592;DHT22;24356;48.460;11.450;2023-05-16T02:19:56;9.00;86.00
38592;DHT22;24356;48.460;11.450;2023-05-16T02:22:24;9.00;85.90
38592;DHT22;24356;48.460;11.450;2023-05-16T02:24:49;9.00;86.00
38592;DHT22;24356;48.460;11.450;2023-05-16T02:27:15;9.00;86.00
38592;DHT22;24356;48.460;11.450;2023-05-16T02:29:40;9.00;86.00
38592;DHT22;24356;48.460;11.450;2023-05-16T02:32:06;9.00;85.90
38592;DHT22;24356;48.460;11.450;2023-05-16T02:34:32;8.90;85.90
38592;DHT22;24356;48.460;11.450;2023-05-16T02:36:57;8.90;85.90
38592;DHT22;24356;48.460;11.450;2023-05-16T02:39:23;8.90;86.00
38592;DHT22;24356;48.460;11.450;2023-05-16T02:41:48;8.90;86.10
38592;DHT22;24356;48.460;11.450;2023-05-16T02:44:14;8.90;86.10
38592;DHT22;24356;48.460;11.450;2023-05-16T02:46:40;8.90;86.00
38592;DHT22;24356;48.460;11.450;2023-05-16T02:49:06;8.90;86.10
38592;DHT22;24356;48.460;11.450;2023-05-16T02:51:31;8.90;86.00
38592;DHT22;24356;48.460;11.450;2023-05-16T02:53:57;8.90;86.00
38592;DHT22;24356;48.460;11.450;2023-05-16T02:56:24;8.90;86.10
38592;DHT22;24356;48.460;11.450;2023-05-16T02:58:52;8.90;86.10
38592;DHT22;24356;48.460;11.450;2023-05-16T03:01:18;8.90;86.10
38592;DHT22;24356;48.460;11.450;2023-05-16T03:03:43;8.90;86.30
38592;DHT22;24356;48.460;11.450;2023-05-16T03:06:09;8.90;86.30
38592;DHT22;24356;48.460;11.450;2023-05-16T03:08:35;8.90;86.10
38592;DHT22;24356;48.460;11.450;2023-05-16T03:11:01;8.90;86.10
38592;DHT22;24356;48.460;11.450;2023-05-16T03:13:26;8.90;86.10
38592;DHT22;24356;48.460;11.450;2023-05-16T03:15:54;8.90;86.10
38592;DHT22;24356;48.460;11.450;2023-05-16T03:18:20;8.90;86.30
38592;DHT22;24356;48.460;11.450;2023-05-16T03:20:46;8.90;86.00
38592;DHT22;24356;48.460;11.450;2023-05-16T03:23:11;8.90;86.10
38592;DHT22;24356;48.460;11.450;2023-05-16T03:25:37;8.90;86.10
38592;DHT22;24356;48.460;11.450;2023-05-16T03:28:06;8.90;86.00
38592;DHT22;24356;48.460;11.450;2023-05-16T03:30:33;8.90;86.10
38592;DHT22;24356;48.460;11.450;2023-05-16T03:32:59;8.90;86.30
38592;DHT22;24356;48.460;11.450;2023-05-16T03:35:25;9.00;86.30
38592;DHT22;24356;48.460;11.450;2023-05-16T03:37:53;9.00;86.10
38592;DHT22;24356;48.460;11.450;2023-05-16T03:40:19;9.00;86.00
38592;DHT22;24356;48.460;11.450;2023-05-16T03:42:45;9.00;86.10
38592;DHT22;24356;48.460;11.450;2023-05-16T03:45:11;9.00;86.10
38592;DHT22;24356;48.460;11.450;2023-05-16T03:47:36;9.00;86.30
38592;DHT22;24356;48.460;11.450;2023-05-16T03:50:02;9.00;86.10
38592;DHT22;24356;48.460;11.450;2023-05-16T03:52:28;9.00;86.10
38592;DHT22;24356;48.460;11.450;2023-05-16T03:54:53;9.00;86.10
38592;DHT22;24356;48.460;11.450;2023-05-16T03:57:19;9.00;86.30
38592;DHT22;24356;48.460;11.450;2023-05-16T03:59:44;9.00;86.50
38592;DHT22;24356;48.460;11.450;2023-05-16T04:02:11;9.00;86.30
38592;DHT22;24356;48.460;11.450;2023-05-16T04:04:36;9.00;86.30
38592;DHT22;24356;48.460;11.450;2023-05-16T04:07:01;9.00;86.30
38592;DHT22;24356;48.460;11.450;2023-05-16T04:09:27;9.00;86.50
38592;DHT22;24356;48.460;11.450;2023-05-16T04:11:52;9.00;86.30
38592;DHT22;24356;48.460;11.450;2023-05-16T04:14:21;9.00;86.50
38592;DHT22;24356;48.460;11.450;2023-05-16T04:16:46;9.00;86.30
38592;DHT22;24356;48.460;11.450;2023-05-16T04:19:12;9.00;86.30
38592;DHT22;24356;48.460;11.450;2023-05-16T04:21:37;9.00;86.30
38592;DHT22;24356;48.460;11.450;2023-05-16T04:24:03;9.00;86.30
38592;DHT22;24356;48.460;11.450;2023-05-16T04:26:28;9.00;86.50
38592;DHT22;24356;48.460;11.450;2023-05-16T04:28:54;9.00;86.50
38592;DHT22;24356;48.460;11.450;2023-05-16T04:31:20;9.00;86.60
38592;DHT22;24356;48.460;11.450;2023-05-16T04:33:47;9.00;86.50
38592;DHT22;24356;48.460;11.450;2023-05-16T04:36:13;9.10;86.50
38592;DHT22;24356;48.460;11.450;2023-05-16T04:38:38;9.10;86.60
38592;DHT22;24356;48.460;11.450;2023-05-16T04:41:04;9.10;86.50
38592;DHT22;24356;48.460;11.450;2023-05-16T04:43:30;9.10;86.30
38592;DHT22;24356;48.460;11.450;2023-05-16T04:45:56;9.10;86.30
38592;DHT22;24356;48.460;11.450;2023-05-16T04:48:23;9.10;86.30
38592;DHT22;24356;48.460;11.450;2023-05-16T04:50:48;9.10;86.50
38592;DHT22;24356;48.460;11.450;2023-05-16T04:53:14;9.20;86.40
38592;DHT22;24356;48.460;11.450;2023-05-16T04:55:39;9.20;86.50
38592;DHT22;24356;48.460;11.450;2023-05-16T04:58:05;9.20;86.20
38592;DHT22;24356;48.460;11.450;2023-05-16T05:00:31;9.20;86.30
38592;DHT22;24356;48.460;11.450;2023-05-16T05:02:56;9.20;86.30
38592;DHT22;24356;48.460;11.450;2023-05-16T05:05:22;9.30;86.20
38592;DHT22;24356;48.460;11.450;2023-05-16T05:07:47;9.30;86.30
38592;DHT22;24356;48.460;11.450;2023-05-16T05:10:14;9.30;86.20
38592;DHT22;24356;48.460;11.450;2023-05-16T05:12:40;9.30;86.00
38592;DHT22;24356;48.460;11.450;2023-05-16T05:15:05;9.40;86.00
38592;DHT22;24356;48.460;11.450;2023-05-16T05:17:31;9.40;86.00
38592;DHT22;24356;48.460;11.450;2023-05-16T05:19:57;9.40;85.90
38592;DHT22;24356;48.460;11.450;2023-05-16T05:22:22;9.40;86.00
38592;DHT22;24356;48.460;11.450;2023-05-16T05:24:48;9.50;86.30
38592;DHT22;24356;48.460;11.450;2023-05-16T05:27:13;9.50;86.20
38592;DHT22;24356;48.460;11.450;2023-05-16T05:29:40;9.50;85.90
38592;DHT22;24356;48.460;11.450;2023-05-16T05:32:06;9.50;85.80
38592;DHT22;24356;48.460;11.450;2023-05-16T05:34:32;9.50;86.10
38592;DHT22;24356;48.460;11.450;2023-05-16T05:36:58;9.60;85.80
38592;DHT22;24356;48.460;11.450;2023-05-16T05:39:23;9.60;85.60
38592;DHT22;24356;48.460;11.450;2023-05-16T05:41:49;9.60;85.50
38592;DHT22;24356;48.460;11.450;2023-05-16T05:44:15;9.60;85.30
38592;DHT22;24356;48.460;11.450;2023-05-16T05:46:40;9.70;85.60
38592;DHT22;24356;48.460;11.450;2023-05-16T05:49:06;9.70;85.50
38592;DHT22;24356;48.460;11.450;2023-05-16T05:51:32;9.80;85.70
38592;DHT22;24356;48.460;11.450;2023-05-16T05:53:57;9.80;85.80
38592;DHT22;24356;48.460;11.450;2023-05-16T05:56:23;9.80;85.50
38592;DHT22;24356;48.460;11.450;2023-05-16T05:58:49;9.80;85.30
38592;DHT22;24356;48.460;11.450;2023-05-16T06:01:15;9.90;85.90
38592;DHT22;24356;48.460;11.450;2023-05-16T06:03:41;9.90;85.80
38592;DHT22;24356;48.460;11.450;2023-05-16T06:06:07;9.90;85.40
38592;DHT22;24356;48.460;11.450;2023-05-16T06:08:32;10.00;85.70
38592;DHT22;24356;48.460;11.450;2023-05-16T06:10:58;10.00;85.80
38592;DHT22;24356;48.460;11.450;2023-05-16T06:13:24;10.00;85.90
38592;DHT22;24356;48.460;11.450;2023-05-16T06:15:52;10.10;85.70
38592;DHT22;24356;48.460;11.450;2023-05-16T06:18:18;10.10;85.60
38592;DHT22;24356;48.460;11.450;2023-05-16T06:20:44;10.10;85.70
38592;DHT22;24356;48.460;11.450;2023-05-16T06:23:09;10.10;85.60
38592;DHT22;24356;48.460;11.450;2023-05-16T06:25:35;10.20;85.80
38592;DHT22;24356;48.460;11.450;2023-05-16T06:28:01;10.20;85.50
38592;DHT22;24356;48.460;11.450;2023-05-16T06:30:27;10.20;85.40
38592;DHT22;24356;48.460;11.450;2023-05-16T06:32:52;10.30;85.40
38592;DHT22;24356;48.460;11.450;2023-05-16T06:35:18;10.30;85.40
38592;DHT22;24356;48.460;11.450;2023-05-16T06:37:43;10.30;85.60
38592;DHT22;24356;48.460;11.450;2023-05-16T06:40:09;10.30;85.70
38592;DHT22;24356;48.460;11.450;2023-05-16T06:42:36;10.40;85.50
38592;DHT22;24356;48.460;11.450;2023-05-16T06:45:02;10.40;85.60
38592;DHT22;24356;48.460;11.450;2023-05-16T06:47:27;10.40;85.40
38592;DHT22;24356;48.460;11.450;2023-05-16T06:49:53;10.50;85.30
38592;DHT22;24356;48.460;11.450;2023-05-16T06:52:18;10.50;85.20
38592;DHT22;24356;48.460;11.450;2023-05-16T06:54:44;10.60;85.10
38592;DHT22;24356;48.460;11.450;2023-05-16T06:57:09;10.60;85.50
38592;DHT22;24356;48.460;11.450;2023-05-16T06:59:35;10.60;85.40
38592;DHT22;24356;48.460;11.450;2023-05-16T07:02:00;10.70;85.40
38592;DHT22;24356;48.460;11.450;2023-05-16T07:04:26;10.70;85.60
38592;DHT22;24356;48.460;11.450;2023-05-16T07:06:52;10.70;85.40
38592;DHT22;24356;48.460;11.450;2023-05-16T07:09:19;10.70;85.50
38592;DHT22;24356;48.460;11.450;2023-05-16T07:11:45;10.70;85.50
38592;DHT22;24356;48.460;11.450;2023-05-16T07:14:10;10.70;85.10
38592;DHT22;24356;48.460;11.450;2023-05-16T07:16:36;10.80;85.60
38592;DHT22;24356;48.460;11.450;2023-05-16T07:19:01;10.80;85.30
38592;DHT22;24356;48.460;11.450;2023-05-16T07:21:27;10.80;85.40
38592;DHT22;24356;48.460;11.450;2023-05-16T07:23:53;10.90;85.40
38592;DHT22;24356;48.460;11.450;2023-05-16T07:26:19;10.90;85.90
38592;DHT22;24356;48.460;11.450;2023-05-16T07:28:48;11.00;85.80
38592;DHT22;24356;48.460;11.450;2023-05-16T07:31:14;11.00;85.70
38592;DHT22;24356;48.460;11.450;2023-05-16T07:33:40;11.10;85.70
38592;DHT22;24356;48.460;11.450;2023-05-16T07:36:06;11.10;85.40
38592;DHT22;24356;48.460;11.450;2023-05-16T07:38:32;11.20;85.20
38592;DHT22;24356;48.460;11.450;2023-05-16T07:40:57;11.20;85.30
38592;DHT22;24356;48.460;11.450;2023-05-16T07:43:23;11.30;85.00
38592;DHT22;24356;48.460;11.450;2023-05-16T07:45:48;11.30;85.10
38592;DHT22;24356;48.460;11.450;2023-05-16T07:48:14;11.40;85.20
38592;DHT22;24356;48.460;11.450;2023-05-16T07:50:41;11.40;85.00
38592;DHT22;24356;48.460;11.450;2023-05-16T07:53:07;11.50;84.80
38592;DHT22;24356;48.460;11.450;2023-05-16T07:55:32;11.50;84.90
38592;DHT22;24356;48.460;11.450;2023-05-16T07:57:58;11.60;84.80
38592;DHT22;24356;48.460;11.450;2023-05-16T08:00:23;11.60;84.90
38592;DHT22;24356;48.460;11.450;2023-05-16T08:02:49;11.70;84.90
38592;DHT22;24356;48.460;11.450;2023-05-16T08:05:15;11.70;84.90
38592;DHT22;24356;48.460;11.450;2023-05-16T08:07:40;11.80;84.70
38592;DHT22;24356;48.460;11.450;2023-05-16T08:10:06;11.80;84.70
38592;DHT22;24356;48.460;11.450;2023-05-16T08:12:32;11.80;84.60
38592;DHT22;24356;48.460;11.450;2023-05-16T08:14:57;11.90;84.50
38592;DHT22;24356;48.460;11.450;2023-05-16T08:17:23;11.90;84.40
38592;DHT22;24356;48.460;11.450;2023-05-16T08:19:48;11.90;84.30
38592;DHT22;24356;48.460;11.450;2023-05-16T08:22:14;11.90;84.20
38592;DHT22;24356;48.460;11.450;2023-05-16T08:24:39;12.00;84.30
38592;DHT22;24356;48.460;11.450;2023-05-16T08:27:05;12.00;84.20
38592;DHT22;24356;48.460;11.450;2023-05-16T08:29:30;12.00;84.20
38592;DHT22;24356;48.460;11.450;2023-05-16T08:31:56;12.00;84.20
38592;DHT22;24356;48.460;11.450;2023-05-16T08:34:22;12.00;84.10
38592;DHT22;24356;48.460;11.450;2023-05-16T08:36:47;12.00;84.20
38592;DHT22;24356;48.460;11.450;2023-05-16T08:39:13;12.00;84.20
38592;DHT22;24356;48.460;11.450;2023-05-16T08:41:38;12.00;84.00
38592;DHT22;24356;48.460;11.450;2023-05-16T08:44:04;12.00;84.20
38592;DHT22;24356;48.460;11.450;2023-05-16T08:46:30;12.00;84.20
38592;DHT22;24356;48.460;11.450;2023-05-16T08:48:58;12.00;84.30
38592;DHT22;24356;48.460;11.450;2023-05-16T08:51:24;12.00;84.40
38592;DHT22;24356;48.460;11.450;2023-05-16T08:53:56;12.00;84.30
38592;DHT22;24356;48.460;11.450;2023-05-16T08:56:23;12.00;84.30
38592;DHT22;24356;48.460;11.450;2023-05-16T08:58:50;12.00;84.20
38592;DHT22;24356;48.460;11.450;2023-05-16T09:01:16;12.00;84.40
38592;DHT22;24356;48.460;11.450;2023-05-16T09:03:42;12.00;84.50
38592;DHT22;24356;48.460;11.450;2023-05-16T09:06:09;12.00;84.60
38592;DHT22;24356;48.460;11.450;2023-05-16T09:08:35;12.00;84.80
38592;DHT22;24356;48.460;11.450;2023-05-16T09:11:01;12.00;84.90
38592;DHT22;24356;48.460;11.450;2023-05-16T09:13:27;12.10;84.90
38592;DHT22;24356;48.460;11.450;2023-05-16T09:16:09;12.10;84.90
38592;DHT22;24356;48.460;11.450;2023-05-16T09:18:36;12.10;84.90
38592;DHT22;24356;48.460;11.450;2023-05-16T09:21:02;12.10;84.90
38592;DHT22;24356;48.460;11.450;2023-05-16T09:23:29;12.10;84.90
38592;DHT22;24356;48.460;11.450;2023-05-16T09:25:56;12.20;84.90
38592;DHT22;24356;48.460;11.450;2023-05-16T09:28:22;12.20;85.20
38592;DHT22;24356;48.460;11.450;2023-05-16T09:30:47;12.20;85.00
38592;DHT22;24356;48.460;11.450;2023-05-16T09:33:13;12.30;85.00
38592;DHT22;24356;48.460;11.450;2023-05-16T09:35:39;12.30;84.90
38592;DHT22;24356;48.460;11.450;2023-05-16T09:38:04;12.30;84.80
38592;DHT22;24356;48.460;11.450;2023-05-16T09:40:30;12.40;84.80
38592;DHT22;24356;48.460;11.450;2023-05-16T09:43:02;12.50;84.80
38592;DHT22;24356;48.460;11.450;2023-05-16T09:45:32;12.50;84.70
38592;DHT22;24356;48.460;11.450;2023-05-16T09:48:06;12.60;84.80
38592;DHT22;24356;48.460;11.450;2023-05-16T09:50:39;12.60;84.80
38592;DHT22;24356;48.460;11.450;2023-05-16T09:53:05;12.70;84.70
38592;DHT22;24356;48.460;11.450;2023-05-16T09:55:31;12.80;84.40
38592;DHT22;24356;48.460;11.450;2023-05-16T09:57:56;12.80;84.30
38592;DHT22;24356;48.460;11.450;2023-05-16T10:00:22;12.90;84.60
38592;DHT22;24356;48.460;11.450;2023-05-16T10:02:53;13.00;84.40
38592;DHT22;24356;48.460;11.450;2023-05-16T10:05:21;13.00;84.40
38592;DHT22;24356;48.460;11.450;2023-05-16T10:07:46;13.10;84.40
38592;DHT22;24356;48.460;11.450;2023-05-16T10:10:12;13.10;84.40
38592;DHT22;24356;48.460;11.450;2023-05-16T10:12:38;13.10;84.20
38592;DHT22;24356;48.460;11.450;2023-05-16T10:15:05;13.20;84.30
38592;DHT22;24356;48.460;11.450;2023-05-16T10:17:33;13.20;84.30
38592;DHT22;24356;48.460;11.450;2023-05-16T10:20:02;13.20;84.30
38592;DHT22;24356;48.460;11.450;2023-05-16T10:22:31;13.20;84.30
38592;DHT22;24356;48.460;11.450;2023-05-16T10:25:09;13.10;84.20
38592;DHT22;24356;48.460;11.450;2023-05-16T10:27:36;13.10;84.20
38592;DHT22;24356;48.460;11.450;2023-05-16T10:30:04;13.10;84.00
38592;DHT22;24356;48.460;11.450;2023-05-16T10:32:30;13.10;84.10
38592;DHT22;24356;48.460;11.450;2023-05-16T10:34:56;13.10;83.90
38592;DHT22;24356;48.460;11.450;2023-05-16T10:37:22;13.10;83.90
38592;DHT22;24356;48.460;11.450;2023-05-16T10:39:48;13.10;83.90
38592;DHT22;24356;48.460;11.450;2023-05-16T10:42:14;13.00;84.00
38592;DHT22;24356;48.460;11.450;2023-05-16T10:44:42;13.00;84.10
38592;DHT22;24356;48.460;11.450;2023-05-16T10:47:08;13.00;84.30
38592;DHT22;24356;48.460;11.450;2023-05-16T10:49:34;13.00;84.40
38592;DHT22;24356;48.460;11.450;2023-05-16T10:52:09;13.00;84.40
38592;DHT22;24356;48.460;11.450;2023-05-16T10:54:39;13.00;84.80
38592;DHT22;24356;48.460;11.450;2023-05-16T10:57:08;13.00;85.30
38592;DHT22;24356;48.460;11.450;2023-05-16T10:59:40;13.00;85.00
38592;DHT22;24356;48.460;11.450;2023-05-16T11:02:19;13.00;84.60
38592;DHT22;24356;48.460;11.450;2023-05-16T11:04:49;13.00;85.00
38592;DHT22;24356;48.460;11.450;2023-05-16T11:07:19;13.00;85.10
38592;DHT22;24356;48.460;11.450;2023-05-16T11:09:49;13.10;85.70
38592;DHT22;24356;48.460;11.450;2023-05-16T11:12:19;13.10;85.60
38592;DHT22;24356;48.460;11.450;2023-05-16T11:14:46;13.20;86.60
38592;DHT22;24356;48.460;11.450;2023-05-16T11:17:22;13.20;85.90
38592;DHT22;24356;48.460;11.450;2023-05-16T11:19:48;13.30;85.30
38592;DHT22;24356;48.460;11.450;2023-05-16T11:22:37;13.30;85.30
38592;DHT22;24356;48.460;11.450;2023-05-16T11:25:01;13.40;85.70
38592;DHT22;24356;48.460;11.450;2023-05-16T11:27:28;13.50;86.00
38592;DHT22;24356;48.460;11.450;2023-05-16T11:29:55;13.50;85.90
38592;DHT22;24356;48.460;11.450;2023-05-16T11:32:22;13.60;85.40
38592;DHT22;24356;48.460;11.450;2023-05-16T11:34:48;13.70;85.50
38592;DHT22;24356;48.460;11.450;2023-05-16T11:37:15;13.70;85.40
38592;DHT22;24356;48.460;11.450;2023-05-16T11:39:41;13.80;85.40
38592;DHT22;24356;48.460;11.450;2023-05-16T11:42:07;13.80;85.00
38592;DHT22;24356;48.460;11.450;2023-05-16T11:44:33;13.90;85.30
38592;DHT22;24356;48.460;11.450;2023-05-16T11:46:59;14.00;85.30
38592;DHT22;24356;48.460;11.450;2023-05-16T11:49:26;14.10;85.10
38592;DHT22;24356;48.460;11.450;2023-05-16T11:51:53;14.20;85.40
38592;DHT22;24356;48.460;11.450;2023-05-16T11:54:18;14.30;85.20
38592;DHT22;24356;48.460;11.450;2023-05-16T11:56:44;14.40;85.10
38592;DHT22;24356;48.460;11.450;2023-05-16T11:59:10;14.50;85.10
38592;DHT22;24356;48.460;11.450;2023-05-16T12:01:36;14.60;85.00
38592;DHT22;24356;48.460;11.450;2023-05-16T12:04:06;14.70;84.70
38592;DHT22;24356;48.460;11.450;2023-05-16T12:06:32;14.80;84.30
38592;DHT22;24356;48.460;11.450;2023-05-16T12:09:02;14.80;84.00
38592;DHT22;24356;48.460;11.450;2023-05-16T12:11:35;14.80;83.30
38592;DHT22;24356;48.460;11.450;2023-05-16T12:14:01;14.80;82.60
38592;DHT22;24356;48.460;11.450;2023-05-16T12:16:26;14.70;82.00
38592;DHT22;24356;48.460;11.450;2023-05-16T12:18:52;14.60;81.30
38592;DHT22;24356;48.460;11.450;2023-05-16T12:21:18;14.60;81.10
38592;DHT22;24356;48.460;11.450;2023-05-16T12:23:43;14.50;81.10
38592;DHT22;24356;48.460;11.450;2023-05-16T12:26:09;14.40;81.10
38592;DHT22;24356;48.460;11.450;2023-05-16T12:28:34;14.30;81.20
38592;DHT22;24356;48.460;11.450;2023-05-16T12:31:01;14.30;81.30
38592;DHT22;24356;48.460;11.450;2023-05-16T12:33:27;14.20;81.50
38592;DHT22;24356;48.460;11.450;2023-05-16T12:35:52;14.20;81.50
38592;DHT22;24356;48.460;11.450;2023-05-16T12:38:18;14.20;81.90
38592;DHT22;24356;48.460;11.450;2023-05-16T12:40:45;14.10;81.90
38592;DHT22;24356;48.460;11.450;2023-05-16T12:43:20;14.10;81.80
38592;DHT22;24356;48.460;11.450;2023-05-16T12:45:53;14.10;81.70
38592;DHT22;24356;48.460;11.450;2023-05-16T12:48:19;14.00;81.80
38592;DHT22;24356;48.460;11.450;2023-05-16T12:50:44;14.00;82.00
38592;DHT22;24356;48.460;11.450;2023-05-16T12:53:14;14.00;81.90
38592;DHT22;24356;48.460;11.450;2023-05-16T12:55:40;13.90;81.60
38592;DHT22;24356;48.460;11.450;2023-05-16T12:58:06;13.90;81.70
38592;DHT22;24356;48.460;11.450;2023-05-16T13:00:32;13.80;81.70
38592;DHT22;24356;48.460;11.450;2023-05-16T13:02:59;13.80;81.80
38592;DHT22;24356;48.460;11.450;2023-05-16T13:05:25;13.80;81.80
38592;DHT22;24356;48.460;11.450;2023-05-16T13:07:50;13.80;81.90
38592;DHT22;24356;48.460;11.450;2023-05-16T13:10:16;13.70;82.00
38592;DHT22;24356;48.460;11.450;2023-05-16T13:12:42;13.70;82.00
38592;DHT22;24356;48.460;11.450;2023-05-16T13:15:08;13.70;82.00
38592;DHT22;24356;48.460;11.450;2023-05-16T13:17:34;13.60;82.20
38592;DHT22;24356;48.460;11.450;2023-05-16T13:19:59;13.60;82.20
38592;DHT22;24356;48.460;11.450;2023-05-16T13:22:24;13.60;82.40
38592;DHT22;24356;48.460;11.450;2023-05-16T13:24:50;13.50;82.40
38592;DHT22;24356;48.460;11.450;2023-05-16T13:27:16;13.50;82.50
38592;DHT22;24356;48.460;11.450;2023-05-16T13:29:44;13.40;82.60
38592;DHT22;24356;48.460;11.450;2023-05-16T13:32:10;13.40;82.70
38592;DHT22;24356;48.460;11.450;2023-05-16T13:34:35;13.30;82.80
38592;DHT22;24356;48.460;11.450;2023-05-16T13:37:01;13.30;82.80
38592;DHT22;24356;48.460;11.450;2023-05-16T13:39:26;13.30;82.80
38592;DHT22;24356;48.460;11.450;2023-05-16T13:41:52;13.30;83.10
38592;DHT22;24356;48.460;11.450;2023-05-16T13:44:17;13.20;83.00
38592;DHT22;24356;48.460;11.450;2023-05-16T13:46:43;13.20;83.30
38592;DHT22;24356;48.460;11.450;2023-05-16T13:49:09;13.10;83.50
38592;DHT22;24356;48.460;11.450;2023-05-16T13:51:34;13.10;83.80
38592;DHT22;24356;48.460;11.450;2023-05-16T13:54:00;13.00;84.10
38592;DHT22;24356;48.460;11.450;2023-05-16T13:56:25;13.00;83.90
38592;DHT22;24356;48.460;11.450;2023-05-16T13:58:51;12.90;84.10
38592;DHT22;24356;48.460;11.450;2023-05-16T14:01:16;12.80;84.10
38592;DHT22;24356;48.460;11.450;2023-05-16T14:03:42;12.80;84.20
38592;DHT22;24356;48.460;11.450;2023-05-16T14:06:07;12.70;84.00
38592;DHT22;24356;48.460;11.450;2023-05-16T14:08:34;12.70;84.20
38592;DHT22;24356;48.460;11.450;2023-05-16T14:10:59;12.60;84.00
38592;DHT22;24356;48.460;11.450;2023-05-16T14:13:26;12.60;84.00
38592;DHT22;24356;48.460;11.450;2023-05-16T14:15:52;12.60;84.00
38592;DHT22;24356;48.460;11.450;2023-05-16T14:18:17;12.60;84.00
38592;DHT22;24356;48.460;11.450;2023-05-16T14:20:43;12.60;84.00
38592;DHT22;24356;48.460;11.450;2023-05-16T14:23:08;12.50;84.00
38592;DHT22;24356;48.460;11.450;2023-05-16T14:25:34;12.50;84.00
38592;DHT22;24356;48.460;11.450;2023-05-16T14:27:59;12.60;84.20
38592;DHT22;24356;48.460;11.450;2023-05-16T14:30:25;12.60;84.00
38592;DHT22;24356;48.460;11.450;2023-05-16T14:32:51;12.60;84.00
38592;DHT22;24356;48.460;11.450;2023-05-16T14:35:16;12.60;84.20
38592;DHT22;24356;48.460;11.450;2023-05-16T14:37:42;12.60;84.20
38592;DHT22;24356;48.460;11.450;2023-05-16T14:40:07;12.60;84.00
38592;DHT22;24356;48.460;11.450;2023-05-16T14:42:33;12.60;84.20
38592;DHT22;24356;48.460;11.450;2023-05-16T14:44:59;12.60;84.20
38592;DHT22;24356;48.460;11.450;2023-05-16T14:47:25;12.60;84.20
38592;DHT22;24356;48.460;11.450;2023-05-16T14:49:52;12.60;84.20
38592;DHT22;24356;48.460;11.450;2023-05-16T14:52:18;12.60;84.20
38592;DHT22;24356;48.460;11.450;2023-05-16T14:54:44;12.60;84.20
38592;DHT22;24356;48.460;11.450;2023-05-16T14:57:10;12.60;84.30
38592;DHT22;24356;48.460;11.450;2023-05-16T14:59:35;12.60;84.40
38592;DHT22;24356;48.460;11.450;2023-05-16T15:02:01;12.60;84.40
38592;DHT22;24356;48.460;11.450;2023-05-16T15:04:26;12.60;84.40
38592;DHT22;24356;48.460;11.450;2023-05-16T15:06:53;12.60;84.40
38592;DHT22;24356;48.460;11.450;2023-05-16T15:09:18;12.60;84.50
38592;DHT22;24356;48.460;11.450;2023-05-16T15:11:44;12.60;84.50
38592;DHT22;24356;48.460;11.450;2023-05-16T15:14:10;12.60;84.50
38592;DHT22;24356;48.460;11.450;2023-05-16T15:16:36;12.50;84.60
38592;DHT22;24356;48.460;11.450;2023-05-16T15:19:01;12.50;84.60
38592;DHT22;24356;48.460;11.450;2023-05-16T15:21:27;12.50;84.70
38592;DHT22;24356;48.460;11.450;2023-05-16T15:23:52;12.50;84.70
38592;DHT22;24356;48.460;11.450;2023-05-16T15:26:19;12.50;84.80